Terminal Aerodrome Forecast
Issued by NWS Bismarck, ND

Home | Current Version | Previous Version | Text Only | Print | Product List | Glossary Off
Versions: 1 2 3 4 5 6 7 8 9 10 11 12 13 14 15 16 17 18 19 20 21 22 23 24 25 26

000
FTUS43 KBIS 250808 AAB
TAFBIS
TAF AMD
KBIS 250808Z 2508/2606 28015G21KT 4SM -SHRA BR OVC008
     FM251200 30022G31KT P6SM -SHRA OVC015
     FM251400 31024G34KT P6SM VCSH BKN035
     FM251600 31024G33KT P6SM SCT090
     FM260300 30007KT P6SM FEW250=

USA.gov is the U.S. government's official web portal to all federal, state and local government web resources and services.